Time,TemperatureF,DewpointF,PressureIn,WindDirection,WindDirectionDegrees,WindSpeedMPH,WindSpeedGustMPH,Humidity,HourlyPrecipIn,Conditions,Clouds,dailyrainin,SolarRadiationWatts/m^2,SoftwareType,DateUTC
2013-05-25 00:01:00,43.0,35.0,-100.00,NNE,13,13.0,22.0,73,-99.99,,,0.00,0.120000,,2013-05-25 06:01:00,
2013-05-25 00:12:00,43.0,35.0,-100.00,NNE,13,13.0,22.0,73,-99.99,,,0.00,0.120000,,2013-05-25 06:12:00,
2013-05-25 00:42:00,41.0,35.0,-100.00,NNE,33,12.0,18.0,78,-99.99,,,0.00,0.120000,,2013-05-25 06:42:00,
2013-05-25 00:52:00,41.0,35.0,-100.00,NNE,33,12.0,18.0,78,-99.99,,,0.00,0.120000,,2013-05-25 06:52:00,
2013-05-25 01:01:00,41.0,35.0,-100.00,NNE,33,12.0,18.0,78,-99.99,,,0.00,0.120000,,2013-05-25 07:01:00,
2013-05-25 01:11:00,41.0,35.0,-100.00,NNE,33,12.0,18.0,78,-99.99,,,0.00,0.120000,,2013-05-25 07:11:00,
2013-05-25 01:31:00,40.0,35.0,-100.00,NNE,16,5.0,8.0,80,-99.99,,,0.00,0.120000,,2013-05-25 07:31:00,
2013-05-25 01:42:00,40.0,35.0,-100.00,NNE,16,5.0,8.0,80,-99.99,,,0.00,0.120000,,2013-05-25 07:42:00,
2013-05-25 01:52:00,40.0,35.0,-100.00,NNE,16,5.0,8.0,80,-99.99,,,0.00,0.120000,,2013-05-25 07:52:00,
2013-05-25 02:02:00,40.0,35.0,-100.00,NNE,16,5.0,8.0,80,-99.99,,,0.00,0.120000,,2013-05-25 08:02:00,
2013-05-25 02:11:00,40.0,35.0,-100.00,NNE,16,5.0,8.0,80,-99.99,,,0.00,0.120000,,2013-05-25 08:11:00,
2013-05-25 02:32:00,39.0,35.0,-100.00,WNW,288,4.0,5.0,85,-99.99,,,0.00,0.120000,,2013-05-25 08:32:00,
2013-05-25 02:42:00,39.0,35.0,-100.00,WNW,288,4.0,5.0,85,-99.99,,,0.00,0.120000,,2013-05-25 08:42:00,
2013-05-25 02:52:00,39.0,35.0,-100.00,WNW,288,4.0,5.0,85,-99.99,,,0.00,0.120000,,2013-05-25 08:52:00,
2013-05-25 03:01:00,39.0,35.0,-100.00,WNW,288,4.0,5.0,85,-99.99,,,0.00,0.120000,,2013-05-25 09:01:00,
2013-05-25 03:11:00,39.0,35.0,-100.00,WNW,288,4.0,5.0,85,-99.99,,,0.00,0.120000,,2013-05-25 09:11:00,
2013-05-25 03:42:00,38.0,36.0,-100.00,WNW,290,3.0,5.0,91,-99.99,,,0.00,0.120000,,2013-05-25 09:42:00,
2013-05-25 03:53:00,38.0,36.0,-100.00,WNW,290,3.0,5.0,91,-99.99,,,0.00,0.120000,,2013-05-25 09:53:00,
2013-05-25 04:02:00,38.0,36.0,-100.00,WNW,290,3.0,5.0,91,-99.99,,,0.00,0.120000,,2013-05-25 10:02:00,
2013-05-25 04:12:00,38.0,36.0,-100.00,WNW,290,3.0,5.0,91,-99.99,,,0.00,0.120000,,2013-05-25 10:12:00,
2013-05-25 04:32:00,36.0,34.0,-100.00,SSW,199,3.0,5.0,95,-99.99,,,0.00,0.120000,,2013-05-25 10:32:00,
2013-05-25 04:42:00,36.0,34.0,-100.00,SSW,199,3.0,5.0,95,-99.99,,,0.00,0.120000,,2013-05-25 10:42:00,
2013-05-25 04:52:00,36.0,34.0,-100.00,SSW,199,3.0,5.0,95,-99.99,,,0.00,0.120000,,2013-05-25 10:52:00,
2013-05-25 05:02:00,36.0,34.0,-100.00,SSW,199,3.0,5.0,95,-99.99,,,0.00,0.120000,,2013-05-25 11:02:00,
2013-05-25 05:12:00,36.0,34.0,-100.00,SSW,199,3.0,5.0,95,-99.99,,,0.00,0.120000,,2013-05-25 11:12:00,
2013-05-25 05:41:00,32.0,32.0,-100.00,SW,223,3.0,4.0,99,-99.99,,,0.00,0.230000,,2013-05-25 11:41:00,
2013-05-25 05:52:00,32.0,32.0,-100.00,SW,223,3.0,4.0,99,-99.99,,,0.00,0.230000,,2013-05-25 11:52:00,
2013-05-25 06:01:00,32.0,32.0,-100.00,SW,223,3.0,4.0,99,-99.99,,,0.00,0.230000,,2013-05-25 12:01:00,
2013-05-25 06:12:00,32.0,32.0,-100.00,SW,223,3.0,4.0,99,-99.99,,,0.00,0.230000,,2013-05-25 12:12:00,
2013-05-25 06:42:00,33.0,32.0,-100.00,SSW,197,4.0,6.0,99,-99.99,,,0.00,20.920000,,2013-05-25 12:42:00,
2013-05-25 06:52:00,33.0,32.0,-100.00,SSW,197,4.0,6.0,99,-99.99,,,0.00,20.920000,,2013-05-25 12:52:00,
2013-05-25 07:02:00,33.0,32.0,-100.00,SSW,197,4.0,6.0,99,-99.99,,,0.00,20.920000,,2013-05-25 13:02:00,
2013-05-25 07:11:00,33.0,32.0,-100.00,SSW,197,4.0,6.0,99,-99.99,,,0.00,20.920000,,2013-05-25 13:11:00,
2013-05-25 07:32:00,36.0,35.0,-100.00,SSW,212,2.0,3.0,96,-99.99,,,0.00,147.720001,,2013-05-25 13:32:00,
2013-05-25 07:42:00,36.0,35.0,-100.00,SSW,212,2.0,3.0,96,-99.99,,,0.00,147.720001,,2013-05-25 13:42:00,
2013-05-25 07:52:00,36.0,35.0,-100.00,SSW,212,2.0,3.0,96,-99.99,,,0.00,147.720001,,2013-05-25 13:52:00,
2013-05-25 08:02:00,36.0,35.0,-100.00,SSW,212,2.0,3.0,96,-99.99,,,0.00,147.720001,,2013-05-25 14:02:00,
2013-05-25 08:11:00,36.0,35.0,-100.00,SSW,212,2.0,3.0,96,-99.99,,,0.00,147.720001,,2013-05-25 14:11:00,
2013-05-25 08:42:00,41.0,36.0,-100.00,South,185,3.0,6.0,82,-99.99,,,0.00,309.959991,,2013-05-25 14:42:00,
2013-05-25 08:52:00,41.0,36.0,-100.00,South,185,3.0,6.0,82,-99.99,,,0.00,309.959991,,2013-05-25 14:52:00,
2013-05-25 09:01:00,41.0,36.0,-100.00,South,185,3.0,6.0,82,-99.99,,,0.00,309.959991,,2013-05-25 15:01:00,
2013-05-25 09:11:00,41.0,36.0,-100.00,South,185,3.0,6.0,82,-99.99,,,0.00,309.959991,,2013-05-25 15:11:00,
2013-05-25 09:33:00,44.0,35.0,-100.00,SSW,208,2.0,6.0,70,-99.99,,,0.00,480.220001,,2013-05-25 15:33:00,
2013-05-25 09:43:00,44.0,35.0,-100.00,SSW,208,2.0,6.0,70,-99.99,,,0.00,480.220001,,2013-05-25 15:43:00,
2013-05-25 09:53:00,44.0,35.0,-100.00,SSW,208,2.0,6.0,70,-99.99,,,0.00,480.220001,,2013-05-25 15:53:00,
2013-05-25 10:03:00,44.0,35.0,-100.00,SSW,208,2.0,6.0,70,-99.99,,,0.00,480.220001,,2013-05-25 16:03:00,
2013-05-25 10:12:00,44.0,35.0,-100.00,SSW,208,2.0,6.0,70,-99.99,,,0.00,480.220001,,2013-05-25 16:12:00,
2013-05-25 10:32:00,47.0,36.0,-100.00,NNE,16,4.0,8.0,63,-99.99,,,0.00,621.309998,,2013-05-25 16:32:00,
2013-05-25 10:42:00,47.0,36.0,-100.00,NNE,16,4.0,8.0,63,-99.99,,,0.00,621.309998,,2013-05-25 16:42:00,
2013-05-25 10:52:00,47.0,36.0,-100.00,NNE,16,4.0,8.0,63,-99.99,,,0.00,621.309998,,2013-05-25 16:52:00,
2013-05-25 11:02:00,47.0,36.0,-100.00,NNE,16,4.0,8.0,63,-99.99,,,0.00,621.309998,,2013-05-25 17:02:00,
2013-05-25 11:11:00,47.0,36.0,-100.00,NNE,16,4.0,8.0,63,-99.99,,,0.00,621.309998,,2013-05-25 17:11:00,
2013-05-25 11:32:00,50.0,36.0,-100.00,North,9,4.0,10.0,59,-99.99,,,0.00,773.099976,,2013-05-25 17:32:00,
2013-05-25 11:42:00,50.0,36.0,-100.00,North,9,4.0,10.0,59,-99.99,,,0.00,773.099976,,2013-05-25 17:42:00,
2013-05-25 11:52:00,50.0,36.0,-100.00,North,9,4.0,10.0,59,-99.99,,,0.00,773.099976,,2013-05-25 17:52:00,
2013-05-25 12:01:00,50.0,36.0,-100.00,North,9,4.0,10.0,59,-99.99,,,0.00,773.099976,,2013-05-25 18:01:00,
2013-05-25 12:11:00,50.0,36.0,-100.00,North,9,4.0,10.0,59,-99.99,,,0.00,773.099976,,2013-05-25 18:11:00,
2013-05-25 12:42:00,52.0,37.0,-100.00,NNE,19,5.0,11.0,54,-99.99,,,0.00,714.169983,,2013-05-25 18:42:00,
2013-05-25 12:52:00,52.0,37.0,-100.00,NNE,19,5.0,11.0,54,-99.99,,,0.00,714.169983,,2013-05-25 18:52:00,
2013-05-25 13:01:00,52.0,37.0,-100.00,NNE,19,5.0,11.0,54,-99.99,,,0.00,714.169983,,2013-05-25 19:01:00,
2013-05-25 13:11:00,52.0,37.0,-100.00,NNE,19,5.0,11.0,54,-99.99,,,0.00,714.169983,,2013-05-25 19:11:00,
2013-05-25 13:32:00,55.0,37.0,-100.00,NNE,24,8.0,14.0,49,-99.99,,,-99.99,1036.680054,,2013-05-25 19:32:00,
2013-05-25 13:42:00,55.0,37.0,-100.00,NNE,24,8.0,14.0,49,-99.99,,,-99.99,1036.680054,,2013-05-25 19:42:00,
2013-05-25 13:52:00,55.0,37.0,-100.00,NNE,24,8.0,14.0,49,-99.99,,,-99.99,1036.680054,,2013-05-25 19:52:00,
2013-05-25 14:02:00,55.0,37.0,-100.00,NNE,24,8.0,14.0,49,-99.99,,,-99.99,1036.680054,,2013-05-25 20:02:00,
2013-05-25 14:11:00,55.0,37.0,-100.00,NNE,24,8.0,14.0,49,-99.99,,,-99.99,1036.680054,,2013-05-25 20:11:00,
2013-05-25 14:32:00,58.0,33.0,-100.00,NNE,25,9.0,15.0,38,-99.99,,,0.00,979.729980,,2013-05-25 20:32:00,
2013-05-25 14:42:00,58.0,33.0,-100.00,NNE,25,9.0,15.0,38,-99.99,,,0.00,979.729980,,2013-05-25 20:42:00,
2013-05-25 14:52:00,58.0,33.0,-100.00,NNE,25,9.0,15.0,38,-99.99,,,0.00,979.729980,,2013-05-25 20:52:00,
2013-05-25 15:02:00,58.0,33.0,-100.00,NNE,25,9.0,15.0,38,-99.99,,,0.00,979.729980,,2013-05-25 21:02:00,
2013-05-25 15:11:00,58.0,33.0,-100.00,NNE,25,9.0,15.0,38,-99.99,,,0.00,979.729980,,2013-05-25 21:11:00,
2013-05-25 15:43:00,57.0,32.0,-100.00,NNW,339,11.0,17.0,39,-99.99,,,0.00,264.869995,,2013-05-25 21:43:00,
2013-05-25 15:53:00,57.0,32.0,-100.00,NNW,339,11.0,17.0,39,-99.99,,,0.00,264.869995,,2013-05-25 21:53:00,
2013-05-25 16:03:00,57.0,32.0,-100.00,NNW,339,11.0,17.0,39,-99.99,,,0.00,264.869995,,2013-05-25 22:03:00,
2013-05-25 16:12:00,57.0,32.0,-100.00,NNW,339,11.0,17.0,39,-99.99,,,0.00,264.869995,,2013-05-25 22:12:00,
2013-05-25 16:32:00,59.0,36.0,-100.00,North,8,9.0,16.0,41,-99.99,,,0.00,573.549988,,2013-05-25 22:32:00,
2013-05-25 16:42:00,59.0,36.0,-100.00,North,8,9.0,16.0,41,-99.99,,,0.00,573.549988,,2013-05-25 22:42:00,
2013-05-25 16:52:00,59.0,36.0,-100.00,North,8,9.0,16.0,41,-99.99,,,0.00,573.549988,,2013-05-25 22:52:00,
2013-05-25 17:02:00,59.0,36.0,-100.00,North,8,9.0,16.0,41,-99.99,,,0.00,573.549988,,2013-05-25 23:02:00,
2013-05-25 17:12:00,59.0,36.0,-100.00,North,8,9.0,16.0,41,-99.99,,,0.00,573.549988,,2013-05-25 23:12:00,
2013-05-25 17:32:00,58.0,38.0,-100.00,NNW,346,16.0,23.0,48,-99.99,,,0.00,730.909973,,2013-05-25 23:32:00,
2013-05-25 17:42:00,58.0,38.0,-100.00,NNW,346,16.0,23.0,48,-99.99,,,0.00,730.909973,,2013-05-25 23:42:00,
2013-05-25 17:52:00,58.0,38.0,-100.00,NNW,346,16.0,23.0,48,-99.99,,,0.00,730.909973,,2013-05-25 23:52:00,
2013-05-25 18:01:00,58.0,38.0,-100.00,NNW,346,16.0,23.0,48,-99.99,,,0.00,730.909973,,2013-05-26 00:01:00,
2013-05-25 18:11:00,58.0,38.0,-100.00,NNW,346,16.0,23.0,48,-99.99,,,0.00,730.909973,,2013-05-26 00:11:00,
2013-05-25 19:32:00,54.0,38.0,-100.00,NE,48,8.0,12.0,53,-99.99,,,0.00,80.660004,,2013-05-26 01:32:00,
2013-05-25 19:42:00,54.0,38.0,-100.00,NE,48,8.0,12.0,53,-99.99,,,0.00,80.660004,,2013-05-26 01:42:00,
2013-05-25 19:52:00,54.0,38.0,-100.00,NE,48,8.0,12.0,53,-99.99,,,0.00,80.660004,,2013-05-26 01:52:00,
2013-05-25 20:02:00,54.0,38.0,-100.00,NE,48,8.0,12.0,53,-99.99,,,0.00,80.660004,,2013-05-26 02:02:00,
2013-05-25 20:11:00,54.0,38.0,-100.00,NE,48,8.0,12.0,53,-99.99,,,0.00,80.660004,,2013-05-26 02:11:00,
2013-05-25 20:32:00,53.0,39.0,-100.00,NNE,22,4.0,6.0,58,-99.99,,,0.00,72.989998,,2013-05-26 02:32:00,
2013-05-25 20:41:00,53.0,39.0,-100.00,NNE,22,4.0,6.0,58,-99.99,,,0.00,72.989998,,2013-05-26 02:41:00,
2013-05-25 20:52:00,53.0,39.0,-100.00,NNE,22,4.0,6.0,58,-99.99,,,0.00,72.989998,,2013-05-26 02:52:00,
2013-05-25 21:01:00,53.0,39.0,-100.00,NNE,22,4.0,6.0,58,-99.99,,,0.00,72.989998,,2013-05-26 03:01:00,
2013-05-25 21:11:00,53.0,39.0,-100.00,NNE,22,4.0,6.0,58,-99.99,,,0.00,72.989998,,2013-05-26 03:11:00,
2013-05-25 21:42:00,49.0,39.0,-100.00,NNW,332,3.0,4.0,68,-99.99,,,0.00,5.000000,,2013-05-26 03:42:00,
2013-05-25 21:53:00,49.0,39.0,-100.00,NNW,332,3.0,4.0,68,-99.99,,,0.00,5.000000,,2013-05-26 03:53:00,
2013-05-25 22:02:00,49.0,39.0,-100.00,NNW,332,3.0,4.0,68,-99.99,,,0.00,5.000000,,2013-05-26 04:02:00,
2013-05-25 22:12:00,49.0,39.0,-100.00,NNW,332,3.0,4.0,68,-99.99,,,0.00,5.000000,,2013-05-26 04:12:00,
2013-05-25 22:33:00,45.0,42.0,-100.00,West,271,3.0,4.0,87,-99.99,,,0.00,0.120000,,2013-05-26 04:33:00,
2013-05-25 22:42:00,45.0,42.0,-100.00,West,271,3.0,4.0,87,-99.99,,,0.00,0.120000,,2013-05-26 04:42:00,
2013-05-25 22:52:00,45.0,42.0,-100.00,West,271,3.0,4.0,87,-99.99,,,0.00,0.120000,,2013-05-26 04:52:00,
2013-05-25 23:02:00,45.0,42.0,-100.00,West,271,3.0,4.0,87,-99.99,,,0.00,0.120000,,2013-05-26 05:02:00,
2013-05-25 23:12:00,45.0,42.0,-100.00,West,271,3.0,4.0,87,-99.99,,,0.00,0.120000,,2013-05-26 05:12:00,
2013-05-25 23:32:00,43.0,39.0,-100.00,WNW,301,2.0,5.0,87,-99.99,,,0.00,0.120000,,2013-05-26 05:32:00,
2013-05-25 23:42:00,43.0,39.0,-100.00,WNW,301,2.0,5.0,87,-99.99,,,0.00,0.120000,,2013-05-26 05:42:00,
2013-05-25 23:52:00,43.0,39.0,-100.00,WNW,301,2.0,5.0,87,-99.99,,,0.00,0.120000,,2013-05-26 05:52:00,